Time;durP1;ratioP1;P1;durP2;ratioP2;P2;SDS_P1;SDS_P2;PMS_P1;PMS_P2;Temp;Humidity;BMP_temperature;BMP_pressure;BME280_temperature;BME280_humidity;BME280_pressure;Samples;Min_cycle;Max_cycle;Signal;HPM_P1;HPM_P2
2022/12/18 00:02:25;;;;;;;26.83;16.00;;;-1.10;90.90;;;;;;4977886;28;20458;-79
2022/12/18 00:04:51;;;;;;;24.67;15.70;;;-1.10;90.90;;;;;;4977183;28;20477;-79
2022/12/18 00:07:18;;;;;;;24.53;14.00;;;-1.10;91.00;;;;;;4976888;28;20516;-79
2022/12/18 00:09:45;;;;;;;25.93;15.23;;;-1.20;91.00;;;;;;4976979;28;20504;-78
2022/12/18 00:12:12;;;;;;;25.37;14.20;;;-1.20;91.00;;;;;;4976840;28;20457;-78
2022/12/18 00:14:39;;;;;;;21.23;15.00;;;-1.20;91.00;;;;;;4976600;28;20481;-78
2022/12/18 00:17:07;;;;;;;23.07;14.70;;;-1.30;91.00;;;;;;4977366;28;20461;-78
2022/12/18 00:19:34;;;;;;;24.67;14.77;;;-1.30;91.10;;;;;;4976741;28;20450;-78
2022/12/18 00:22:00;;;;;;;21.53;14.80;;;-1.30;91.00;;;;;;4976777;28;20453;-78
2022/12/18 00:24:27;;;;;;;25.27;14.50;;;-1.30;90.90;;;;;;4978207;28;20470;-79
2022/12/18 00:26:54;;;;;;;24.60;14.37;;;-1.30;91.00;;;;;;4976688;28;20493;-76
2022/12/18 00:29:20;;;;;;;24.33;15.77;;;-1.30;91.10;;;;;;4977488;28;20818;-76
2022/12/18 00:31:47;;;;;;;21.63;14.37;;;-1.30;91.00;;;;;;4977648;28;20465;-76
2022/12/18 00:34:16;;;;;;;28.27;15.37;;;-1.30;91.30;;;;;;4979003;28;20477;-76
2022/12/18 00:36:43;;;;;;;19.47;12.63;;;-1.30;91.00;;;;;;4977920;28;20446;-77
2022/12/18 00:39:12;;;;;;;20.97;14.47;;;-1.30;91.00;;;;;;4978010;28;20469;-77
2022/12/18 00:44:23;;;;;;;20.57;13.27;;;-1.40;91.00;;;;;;4978200;28;20528;-77
2022/12/18 00:46:50;;;;;;;21.43;13.70;;;-1.40;91.10;;;;;;4977811;28;20496;-77
2022/12/18 00:49:19;;;;;;;22.97;14.07;;;-1.40;91.20;;;;;;4977576;28;20453;-77
2022/12/18 00:51:46;;;;;;;26.50;14.67;;;-1.40;91.20;;;;;;4977408;28;20941;-76
2022/12/18 00:54:13;;;;;;;22.77;14.20;;;-1.30;91.20;;;;;;4977090;28;20469;-77
2022/12/18 00:56:40;;;;;;;21.17;13.07;;;-1.40;91.10;;;;;;4976636;28;20516;-77
2022/12/18 00:59:07;;;;;;;24.87;14.13;;;-1.40;91.20;;;;;;4978069;28;20450;-77
2022/12/18 01:01:34;;;;;;;22.83;14.00;;;-1.40;91.10;;;;;;4977413;28;20445;-77
2022/12/18 01:04:02;;;;;;;21.00;13.93;;;-1.40;91.20;;;;;;4976812;28;20477;-77
2022/12/18 01:06:30;;;;;;;23.00;13.10;;;-1.40;91.20;;;;;;4976717;28;20458;-76
2022/12/18 01:08:57;;;;;;;17.83;12.47;;;-1.40;91.20;;;;;;4977251;28;20454;-76
2022/12/18 01:11:24;;;;;;;19.40;12.70;;;-1.40;91.10;;;;;;4977192;28;20822;-75
2022/12/18 01:13:52;;;;;;;21.93;13.93;;;-1.40;91.10;;;;;;4976757;28;20997;-76
2022/12/18 01:16:19;;;;;;;23.47;13.83;;;-1.40;91.20;;;;;;4976674;28;20442;-76
2022/12/18 01:18:46;;;;;;;22.37;13.50;;;-1.40;91.20;;;;;;4977022;28;20434;-76
2022/12/18 01:21:15;;;;;;;21.53;14.53;;;-1.50;91.20;;;;;;4977801;28;20454;-76
2022/12/18 01:23:43;;;;;;;22.87;14.20;;;-1.40;91.40;;;;;;4976957;28;20458;-75
2022/12/18 01:26:12;;;;;;;20.50;12.97;;;-1.50;91.40;;;;;;4976505;28;20437;-76
2022/12/18 01:28:39;;;;;;;23.67;14.10;;;-1.50;91.30;;;;;;4977497;28;21035;-75
2022/12/18 01:31:17;;;;;;;29.30;15.10;;;-1.50;91.30;;;;;;4975784;28;20837;-76
2022/12/18 01:33:44;;;;;;;23.97;14.37;;;-1.50;91.30;;;;;;4975780;28;20441;-76
2022/12/18 01:36:17;;;;;;;20.27;13.03;;;-1.50;91.30;;;;;;4975864;28;20460;-76
2022/12/18 01:38:45;;;;;;;23.33;13.70;;;-1.60;91.30;;;;;;4975576;28;20442;-76
2022/12/18 01:41:12;;;;;;;26.20;15.43;;;-1.60;91.40;;;;;;4977708;28;20473;-77
2022/12/18 01:43:47;;;;;;;24.43;13.80;;;-1.70;91.40;;;;;;4977918;28;20453;-76
2022/12/18 01:46:15;;;;;;;23.07;13.23;;;-1.60;91.50;;;;;;4975758;28;20446;-77
2022/12/18 01:48:43;;;;;;;25.93;12.80;;;-1.60;91.50;;;;;;4975231;28;21008;-76
2022/12/18 01:51:12;;;;;;;20.53;12.80;;;-1.60;91.40;;;;;;4975690;28;20497;-76
2022/12/18 01:53:41;;;;;;;18.77;12.53;;;-1.60;91.40;;;;;;4975656;28;20450;-77
2022/12/18 01:56:14;;;;;;;20.00;13.40;;;-1.60;91.50;;;;;;4975127;28;20872;-76
2022/12/18 01:58:48;;;;;;;21.73;12.80;;;-1.60;91.40;;;;;;4975351;28;20438;-77
2022/12/18 02:01:14;;;;;;;20.90;13.73;;;-1.60;91.40;;;;;;4974763;28;20438;-77
2022/12/18 02:03:43;;;;;;;20.40;12.97;;;-1.60;91.30;;;;;;4975260;28;20450;-76
2022/12/18 02:06:15;;;;;;;25.60;13.63;;;-1.70;91.40;;;;;;4975657;28;20492;-77
2022/12/18 02:08:51;;;;;;;20.20;13.87;;;-1.60;91.50;;;;;;4974898;28;20478;-76
2022/12/18 02:11:28;;;;;;;23.20;13.90;;;-1.70;91.40;;;;;;4974953;28;20456;-77
2022/12/18 02:14:09;;;;;;;22.40;13.30;;;-1.70;91.50;;;;;;4974871;28;20528;-76
2022/12/18 02:16:43;;;;;;;19.50;13.10;;;-1.70;91.50;;;;;;4974793;28;20434;-76
2022/12/18 02:19:21;;;;;;;18.43;12.67;;;-1.70;91.50;;;;;;4974905;28;20437;-76
2022/12/18 02:21:56;;;;;;;22.07;13.73;;;-1.70;91.60;;;;;;4974627;28;20910;-76
2022/12/18 02:24:34;;;;;;;21.50;12.57;;;-1.70;91.70;;;;;;4974858;28;20838;-76
2022/12/18 02:27:06;;;;;;;22.53;14.00;;;-1.70;91.70;;;;;;4974644;28;20438;-76
2022/12/18 02:29:38;;;;;;;19.13;11.17;;;-1.70;91.70;;;;;;4974378;28;20911;-76
2022/12/18 02:32:10;;;;;;;23.83;14.90;;;-1.70;91.60;;;;;;4974650;28;20438;-76
2022/12/18 02:34:40;;;;;;;24.73;13.87;;;-1.60;91.60;;;;;;4974441;28;20915;-77
2022/12/18 02:37:11;;;;;;;24.80;13.57;;;-1.60;91.50;;;;;;4974305;28;20923;-77
2022/12/18 02:39:41;;;;;;;22.63;12.57;;;-1.60;91.50;;;;;;4974714;28;20434;-77
2022/12/18 02:42:09;;;;;;;22.53;13.17;;;-1.60;91.40;;;;;;4974580;28;20453;-77
2022/12/18 02:44:43;;;;;;;22.20;13.93;;;-1.60;91.50;;;;;;4974904;28;20473;-76
2022/12/18 02:47:12;;;;;;;21.90;13.40;;;-1.70;91.30;;;;;;4974573;28;20521;-76
2022/12/18 02:49:50;;;;;;;24.40;14.17;;;-1.70;91.40;;;;;;4974643;28;20488;-76
2022/12/18 02:52:32;;;;;;;20.00;13.20;;;-1.60;91.40;;;;;;4974524;28;20442;-77
2022/12/18 02:55:10;;;;;;;22.93;13.90;;;-1.70;91.40;;;;;;4974493;28;20480;-76
2022/12/18 02:57:43;;;;;;;19.70;12.90;;;-1.70;91.40;;;;;;4974547;28;20441;-77
2022/12/18 03:00:15;;;;;;;22.83;13.87;;;-1.70;91.30;;;;;;4974567;28;20442;-76
2022/12/18 03:02:47;;;;;;;23.50;13.80;;;-1.70;91.40;;;;;;4974498;28;20437;-77
2022/12/18 03:05:17;;;;;;;20.83;14.60;;;-1.70;91.40;;;;;;4974320;28;20480;-77
2022/12/18 03:07:52;;;;;;;22.30;14.37;;;-1.80;91.40;;;;;;4977239;28;20885;-77
2022/12/18 03:10:26;;;;;;;20.10;13.30;;;-1.80;91.40;;;;;;4978105;28;20442;-77
2022/12/18 03:13:01;;;;;;;24.33;13.43;;;-1.80;91.30;;;;;;4977620;28;20926;-77
2022/12/18 03:15:32;;;;;;;25.00;13.97;;;-1.80;91.40;;;;;;4977999;28;20483;-77
2022/12/18 03:18:05;;;;;;;20.97;13.20;;;-1.80;91.50;;;;;;4977965;28;20430;-77
2022/12/18 03:20:35;;;;;;;23.23;14.93;;;-1.80;91.50;;;;;;4977670;28;20906;-77
2022/12/18 03:23:07;;;;;;;22.43;13.77;;;-1.80;91.60;;;;;;4977923;28;20461;-77
2022/12/18 03:25:35;;;;;;;22.83;14.57;;;-1.80;91.60;;;;;;4977770;28;20811;-77
2022/12/18 03:28:05;;;;;;;21.47;13.47;;;-1.70;91.70;;;;;;4977546;28;20536;-76
2022/12/18 03:30:34;;;;;;;22.37;13.57;;;-1.70;91.60;;;;;;4977079;28;20972;-77
2022/12/18 03:33:08;;;;;;;20.07;12.03;;;-1.70;91.50;;;;;;4977522;28;20441;-77
2022/12/18 03:35:38;;;;;;;23.20;14.20;;;-1.60;91.40;;;;;;4977647;28;20477;-77
2022/12/18 03:38:05;;;;;;;21.33;13.00;;;-1.70;91.20;;;;;;4978100;28;20887;-79
2022/12/18 03:40:41;;;;;;;23.83;14.30;;;-1.70;91.30;;;;;;4977681;28;20454;-77
2022/12/18 03:43:15;;;;;;;20.40;13.90;;;-1.60;91.40;;;;;;4978029;28;20441;-76
2022/12/18 03:45:47;;;;;;;20.63;14.03;;;-1.70;91.20;;;;;;4990049;28;20473;-77
2022/12/18 03:48:20;;;;;;;21.47;13.90;;;-1.70;91.10;;;;;;4999033;28;20504;-76
2022/12/18 03:50:53;;;;;;;25.40;13.17;;;-1.70;91.20;;;;;;4989466;28;20437;-76
2022/12/18 03:53:29;;;;;;;21.63;14.10;;;-1.70;91.30;;;;;;4984813;28;20438;-76
2022/12/18 03:55:58;;;;;;;19.80;12.83;;;-1.70;91.30;;;;;;4986477;28;20434;-75
2022/12/18 03:58:27;;;;;;;20.90;13.30;;;-1.70;91.20;;;;;;4984418;28;20454;-76
2022/12/18 04:00:57;;;;;;;22.73;13.40;;;-1.70;91.20;;;;;;4985211;28;20877;-75
2022/12/18 04:03:25;;;;;;;23.00;13.10;;;-1.70;91.20;;;;;;4984826;28;20922;-76
2022/12/18 04:05:55;;;;;;;20.07;13.40;;;-1.70;91.20;;;;;;4979510;28;20482;-76
2022/12/18 04:08:23;;;;;;;23.77;13.43;;;-1.60;91.30;;;;;;4984475;28;20486;-76
2022/12/18 04:10:49;;;;;;;19.03;13.37;;;-1.60;91.30;;;;;;4984610;28;20453;-76
2022/12/18 04:13:23;;;;;;;32.53;13.87;;;-1.60;91.30;;;;;;4983768;28;20461;-76
2022/12/18 04:15:52;;;;;;;20.83;13.20;;;-1.70;91.20;;;;;;4984335;28;20477;-76
2022/12/18 04:18:19;;;;;;;25.93;14.20;;;-1.60;91.20;;;;;;4981726;28;20450;-77
2022/12/18 04:20:45;;;;;;;21.50;13.53;;;-1.60;91.20;;;;;;4983879;28;20457;-76
2022/12/18 04:23:12;;;;;;;22.07;14.60;;;-1.60;91.00;;;;;;4983424;28;20458;-76
2022/12/18 04:25:39;;;;;;;21.37;14.17;;;-1.60;90.90;;;;;;4982918;28;20474;-76
2022/12/18 04:28:05;;;;;;;19.90;14.00;;;-1.60;90.90;;;;;;4982569;28;21028;-76
2022/12/18 04:30:32;;;;;;;22.73;13.53;;;-1.70;90.90;;;;;;4982081;28;20465;-77
2022/12/18 04:33:00;;;;;;;24.00;13.97;;;-1.70;90.90;;;;;;4981645;28;20458;-77
2022/12/18 04:35:27;;;;;;;23.90;13.43;;;-1.70;91.00;;;;;;4981926;28;20834;-77
2022/12/18 04:37:54;;;;;;;20.10;13.37;;;-1.60;91.00;;;;;;4982149;28;20931;-77
2022/12/18 04:40:21;;;;;;;22.53;14.20;;;-1.60;91.00;;;;;;4981412;28;20788;-77
2022/12/18 04:42:47;;;;;;;24.23;14.20;;;-1.60;91.00;;;;;;4981395;28;20461;-77
2022/12/18 04:45:14;;;;;;;20.10;13.03;;;-1.60;90.90;;;;;;4985764;28;20473;-77
2022/12/18 04:47:41;;;;;;;25.53;13.83;;;-1.60;90.90;;;;;;4990456;28;20465;-76
2022/12/18 04:50:09;;;;;;;22.23;13.07;;;-1.60;90.90;;;;;;4991763;28;20472;-76
2022/12/18 04:52:36;;;;;;;22.87;13.27;;;-1.60;90.80;;;;;;5012726;28;20449;-76
2022/12/18 04:55:03;;;;;;;21.73;13.40;;;-1.60;90.60;;;;;;5007679;28;20472;-76
2022/12/18 04:57:30;;;;;;;20.90;12.93;;;-1.70;90.70;;;;;;4999434;28;20937;-76
2022/12/18 04:59:57;;;;;;;24.50;13.23;;;-1.70;90.80;;;;;;5001380;28;20449;-76
2022/12/18 05:02:23;;;;;;;20.47;13.47;;;-1.70;90.80;;;;;;5000841;28;20437;-76
2022/12/18 05:04:50;;;;;;;26.57;13.47;;;-1.70;90.80;;;;;;5000663;28;20479;-77
2022/12/18 05:07:18;;;;;;;26.60;14.60;;;-1.80;90.80;;;;;;4999964;28;20441;-77
2022/12/18 05:09:45;;;;;;;21.53;13.47;;;-1.70;90.90;;;;;;5000038;28;20489;-77
2022/12/18 05:12:11;;;;;;;22.43;12.80;;;-1.70;90.90;;;;;;4999591;28;20456;-77
2022/12/18 05:14:38;;;;;;;26.00;14.63;;;-1.70;90.80;;;;;;4999596;28;20477;-77
2022/12/18 05:17:05;;;;;;;23.93;14.30;;;-1.70;90.70;;;;;;4999256;28;20459;-77
2022/12/18 05:19:31;;;;;;;23.03;13.80;;;-1.70;90.70;;;;;;4999074;28;20449;-77
2022/12/18 05:21:58;;;;;;;21.70;12.90;;;-1.70;90.60;;;;;;4988817;28;20477;-77
2022/12/18 05:24:26;;;;;;;17.60;12.50;;;-1.80;90.60;;;;;;4978884;28;20482;-77
2022/12/18 05:26:53;;;;;;;20.63;13.60;;;-1.80;90.50;;;;;;4978709;28;20461;-77
2022/12/18 05:29:20;;;;;;;22.13;14.20;;;-1.80;90.40;;;;;;4978733;28;20497;-77
2022/12/18 05:31:46;;;;;;;19.47;11.97;;;-1.80;90.30;;;;;;4978310;28;20966;-77
2022/12/18 05:34:13;;;;;;;22.60;13.90;;;-1.90;90.40;;;;;;4978826;28;20477;-77
2022/12/18 05:36:40;;;;;;;23.33;13.70;;;-1.90;90.50;;;;;;4978643;28;20450;-77
2022/12/18 05:39:07;;;;;;;24.40;13.37;;;-2.00;90.60;;;;;;4978623;28;20465;-77
2022/12/18 05:41:35;;;;;;;24.27;14.07;;;-2.00;90.90;;;;;;4978019;28;20453;-77
2022/12/18 05:44:02;;;;;;;20.00;13.63;;;-2.00;90.90;;;;;;4977444;28;20477;-77
2022/12/18 05:46:29;;;;;;;21.03;14.53;;;-2.00;91.00;;;;;;4977306;28;20449;-77
2022/12/18 05:48:56;;;;;;;24.90;14.10;;;-2.00;91.10;;;;;;4976781;28;20945;-78
2022/12/18 05:51:23;;;;;;;23.57;13.83;;;-2.00;91.10;;;;;;4976456;28;20457;-78
2022/12/18 05:53:50;;;;;;;24.50;14.80;;;-2.00;91.10;;;;;;4976897;28;20461;-77
2022/12/18 05:56:21;;;;;;;20.93;13.13;;;-2.10;91.20;;;;;;4976454;28;20471;-77
2022/12/18 05:58:52;;;;;;;24.47;13.63;;;-2.00;91.20;;;;;;4977772;28;20434;-78
2022/12/18 06:01:23;;;;;;;22.07;13.70;;;-2.10;91.10;;;;;;4977271;28;20437;-78
2022/12/18 06:03:49;;;;;;;20.53;14.73;;;-2.10;91.20;;;;;;4976603;28;20452;-77
2022/12/18 06:06:17;;;;;;;18.70;13.27;;;-2.10;91.20;;;;;;4976139;28;20470;-78
2022/12/18 06:08:44;;;;;;;25.53;15.33;;;-2.00;91.60;;;;;;4975909;28;20496;-77
2022/12/18 06:11:11;;;;;;;22.37;13.60;;;-2.00;91.20;;;;;;4976242;28;20438;-77
2022/12/18 06:13:38;;;;;;;24.97;13.90;;;-2.00;91.10;;;;;;4975612;28;20461;-77
2022/12/18 06:16:07;;;;;;;24.40;14.70;;;-2.00;91.10;;;;;;4976053;28;20954;-78
2022/12/18 06:18:38;;;;;;;24.90;15.80;;;-2.00;91.10;;;;;;4975660;28;20453;-78
2022/12/18 06:21:05;;;;;;;28.33;16.30;;;-1.90;91.20;;;;;;4975695;28;20469;-78
2022/12/18 06:23:32;;;;;;;23.20;15.10;;;-1.90;91.20;;;;;;4975404;28;20467;-77
2022/12/18 06:25:59;;;;;;;23.83;16.20;;;-1.90;91.20;;;;;;4975139;28;20462;-78
2022/12/18 06:28:25;;;;;;;22.97;14.70;;;-1.90;91.20;;;;;;4975678;28;20485;-78
2022/12/18 06:30:52;;;;;;;25.20;14.70;;;-1.90;91.20;;;;;;4975304;28;20464;-78
2022/12/18 06:33:20;;;;;;;23.30;15.30;;;-1.90;91.20;;;;;;4975145;28;20461;-78
2022/12/18 06:35:47;;;;;;;28.03;15.70;;;-1.90;91.10;;;;;;4975211;28;20477;-78
2022/12/18 06:38:14;;;;;;;24.63;15.30;;;-1.90;91.10;;;;;;4975217;28;20441;-78
2022/12/18 06:40:40;;;;;;;25.53;15.37;;;-1.90;91.00;;;;;;4980332;28;20458;-78
2022/12/18 06:43:07;;;;;;;25.30;15.63;;;-1.90;91.10;;;;;;4991884;28;20460;-77
2022/12/18 06:45:34;;;;;;;26.00;15.63;;;-1.90;91.10;;;;;;4991807;28;20468;-77
2022/12/18 06:48:01;;;;;;;31.43;16.53;;;-1.90;91.10;;;;;;4979513;28;20885;-77
2022/12/18 06:50:29;;;;;;;28.77;16.17;;;-1.90;90.90;;;;;;4978631;28;21009;-77
2022/12/18 06:52:56;;;;;;;27.93;15.63;;;-1.90;90.80;;;;;;4979005;28;20589;-77
2022/12/18 06:55:23;;;;;;;27.60;15.50;;;-1.90;90.90;;;;;;4978753;28;20477;-78
2022/12/18 06:57:50;;;;;;;23.77;14.33;;;-1.90;91.00;;;;;;4978552;28;20798;-78
2022/12/18 07:00:17;;;;;;;25.50;14.90;;;-2.00;90.90;;;;;;4978722;28;20454;-78
2022/12/18 07:02:44;;;;;;;23.03;13.80;;;-2.00;90.90;;;;;;4978499;28;20444;-77
2022/12/18 07:05:12;;;;;;;21.83;14.10;;;-2.00;91.10;;;;;;4978304;28;20466;-77
2022/12/18 07:07:40;;;;;;;25.63;15.33;;;-2.00;91.20;;;;;;4978395;28;20442;-78
2022/12/18 07:10:07;;;;;;;25.70;15.70;;;-2.10;91.20;;;;;;4978123;28;21017;-78
2022/12/18 07:12:34;;;;;;;27.40;14.40;;;-2.20;91.10;;;;;;4977945;28;20453;-77
2022/12/18 07:15:00;;;;;;;27.63;16.13;;;-2.20;91.30;;;;;;4978493;28;20485;-78
2022/12/18 07:17:29;;;;;;;26.63;15.40;;;-2.20;91.30;;;;;;4977975;28;20461;-78
2022/12/18 07:19:56;;;;;;;22.67;15.93;;;-2.20;91.50;;;;;;4978129;28;20438;-78
2022/12/18 07:22:22;;;;;;;25.90;16.03;;;-2.20;91.30;;;;;;4977867;28;20852;-77
2022/12/18 07:24:50;;;;;;;22.47;14.37;;;-2.30;91.30;;;;;;4978195;28;20473;-78
2022/12/18 07:27:17;;;;;;;26.63;15.70;;;-2.40;91.50;;;;;;4977887;28;20457;-78
2022/12/18 07:29:44;;;;;;;26.80;15.33;;;-2.40;91.80;;;;;;4978049;28;20827;-78
2022/12/18 07:32:11;;;;;;;26.47;16.67;;;-2.40;92.00;;;;;;4978131;28;20441;-78
2022/12/18 07:34:37;;;;;;;29.50;17.20;;;-2.40;92.10;;;;;;4977686;28;20481;-78
2022/12/18 07:37:04;;;;;;;26.37;14.50;;;-2.30;92.10;;;;;;4978752;28;20454;-78
2022/12/18 07:39:31;;;;;;;28.10;16.23;;;-2.30;91.90;;;;;;4979415;28;20457;-78
2022/12/18 07:44:44;;;;;;;23.50;14.73;;;-2.30;91.90;;;;;;4978563;28;20549;-78
2022/12/18 07:47:11;;;;;;;23.23;15.10;;;-2.40;91.80;;;;;;4977807;28;20840;-79
2022/12/18 07:49:38;;;;;;;23.03;14.13;;;-2.40;92.00;;;;;;4977956;28;20996;-79
2022/12/18 07:52:04;;;;;;;24.97;15.07;;;-2.40;92.00;;;;;;4998185;28;20433;-79
2022/12/18 07:54:32;;;;;;;22.27;13.90;;;-2.30;92.00;;;;;;4997119;28;20977;-79
2022/12/18 07:57:02;;;;;;;23.30;14.20;;;-2.30;92.00;;;;;;4997520;28;20429;-79
2022/12/18 07:59:29;;;;;;;27.07;16.43;;;-2.30;91.90;;;;;;4997174;28;20437;-78
2022/12/18 08:01:56;;;;;;;28.77;15.90;;;-2.30;92.00;;;;;;4997213;28;20460;-78
2022/12/18 08:04:22;;;;;;;23.33;15.13;;;-2.30;92.10;;;;;;4997131;28;21055;-78
2022/12/18 08:06:49;;;;;;;22.73;14.03;;;-2.30;92.20;;;;;;4998886;28;20452;-78
2022/12/18 08:09:16;;;;;;;24.57;15.50;;;-2.20;92.20;;;;;;4997691;28;20477;-79
2022/12/18 08:11:43;;;;;;;25.90;14.43;;;-2.20;92.30;;;;;;4996593;28;20964;-78
2022/12/18 08:14:11;;;;;;;23.33;13.23;;;-2.10;92.30;;;;;;4996500;28;20472;-79
2022/12/18 08:16:38;;;;;;;23.13;13.83;;;-2.00;92.20;;;;;;4996802;28;20445;-79
2022/12/18 08:19:04;;;;;;;23.07;14.43;;;-2.00;92.20;;;;;;4997021;28;20452;-78
2022/12/18 08:21:32;;;;;;;25.40;15.20;;;-1.90;92.10;;;;;;4996641;28;20437;-78
2022/12/18 08:24:01;;;;;;;21.70;13.83;;;-1.90;92.00;;;;;;4996198;28;20487;-79
2022/12/18 08:26:30;;;;;;;20.00;14.07;;;-1.90;92.10;;;;;;4996295;28;20452;-78
2022/12/18 08:28:58;;;;;;;21.13;14.13;;;-1.80;92.30;;;;;;4995952;28;20461;-78
2022/12/18 08:31:27;;;;;;;24.07;15.10;;;-1.80;92.00;;;;;;4995844;28;20844;-79
2022/12/18 08:33:55;;;;;;;25.07;15.13;;;-1.70;92.00;;;;;;4996177;28;20468;-78
2022/12/18 08:36:22;;;;;;;21.90;14.10;;;-1.70;91.90;;;;;;4996130;28;20825;-78
2022/12/18 08:38:49;;;;;;;22.77;13.23;;;-1.60;91.80;;;;;;4996141;28;20433;-79
2022/12/18 08:41:17;;;;;;;26.37;15.50;;;-1.60;91.80;;;;;;4996094;28;20456;-79
2022/12/18 08:46:35;;;;;;;25.67;15.83;;;-1.50;91.60;;;;;;4996017;28;20408;-79
2022/12/18 08:49:01;;;;;;;24.50;16.47;;;-1.50;91.50;;;;;;4995971;28;20504;-79
2022/12/18 08:51:28;;;;;;;25.37;16.00;;;-1.40;91.40;;;;;;4995876;28;20913;-79
2022/12/18 08:53:55;;;;;;;27.13;15.77;;;-1.40;91.30;;;;;;4995694;28;20469;-79
2022/12/18 08:56:21;;;;;;;25.77;15.60;;;-1.40;91.60;;;;;;4995823;28;20448;-78
2022/12/18 08:58:52;;;;;;;24.40;14.07;;;-1.30;91.20;;;;;;4995375;28;20943;-78
2022/12/18 09:01:19;;;;;;;25.33;15.10;;;-1.30;91.00;;;;;;4995568;28;20444;-78
2022/12/18 09:03:47;;;;;;;26.33;14.47;;;-1.30;91.00;;;;;;4994931;28;20444;-77
2022/12/18 09:06:15;;;;;;;21.17;14.00;;;-1.30;90.80;;;;;;4995526;28;20540;-76
2022/12/18 09:08:42;;;;;;;26.10;15.93;;;-1.30;91.10;;;;;;4995357;28;20496;-78
2022/12/18 09:11:14;;;;;;;23.90;14.13;;;-1.30;91.00;;;;;;4995319;28;20888;-77
2022/12/18 09:13:41;;;;;;;25.33;15.30;;;-1.30;91.30;;;;;;4995677;28;20444;-77
2022/12/18 09:16:08;;;;;;;24.23;16.03;;;-1.20;91.10;;;;;;4995519;28;21097;-79
2022/12/18 09:18:34;;;;;;;24.83;15.10;;;-1.20;91.50;;;;;;4995518;28;20445;-79
2022/12/18 09:21:08;;;;;;;20.43;14.13;;;-1.10;91.20;;;;;;4995359;28;20437;-79
2022/12/18 09:23:35;;;;;;;21.47;13.93;;;-1.00;91.10;;;;;;4995205;28;20512;-78
2022/12/18 09:26:02;;;;;;;26.53;15.60;;;-1.00;91.10;;;;;;4995116;28;20443;-77
2022/12/18 09:28:31;;;;;;;22.70;15.20;;;-0.90;91.20;;;;;;4995257;28;20445;-77
2022/12/18 09:30:59;;;;;;;25.23;14.93;;;-0.90;91.20;;;;;;4994881;28;20901;-78
2022/12/18 09:33:26;;;;;;;29.43;16.50;;;-0.90;90.90;;;;;;4995369;28;20536;-78
2022/12/18 09:35:52;;;;;;;24.90;14.87;;;-0.80;90.80;;;;;;4994828;28;20481;-78
2022/12/18 09:38:22;;;;;;;23.50;15.70;;;-0.70;90.60;;;;;;4995135;28;20452;-78
2022/12/18 09:40:51;;;;;;;22.63;14.20;;;-0.60;90.60;;;;;;4994881;28;20436;-78
2022/12/18 09:43:25;;;;;;;22.30;14.47;;;-0.60;90.70;;;;;;4995734;28;20456;-77
2022/12/18 09:45:56;;;;;;;23.10;14.97;;;-0.50;90.40;;;;;;4994718;28;20819;-77
2022/12/18 09:48:26;;;;;;;23.97;14.80;;;-0.40;90.10;;;;;;4994703;28;20451;-77
2022/12/18 09:50:57;;;;;;;23.70;14.07;;;-0.40;90.10;;;;;;4994576;28;20874;-77
2022/12/18 09:53:31;;;;;;;26.40;14.67;;;-0.30;89.90;;;;;;4994749;28;20937;-78
2022/12/18 09:55:58;;;;;;;21.53;14.90;;;-0.30;89.70;;;;;;4995111;28;20440;-78
2022/12/18 09:58:31;;;;;;;20.83;14.40;;;-0.20;89.70;;;;;;4995094;28;20513;-78
2022/12/18 10:00:58;;;;;;;24.87;14.97;;;-0.10;89.10;;;;;;4995095;28;20433;-78
2022/12/18 10:03:25;;;;;;;155.43;19.40;;;0.00;89.00;;;;;;4994870;28;20950;-78
2022/12/18 10:06:02;;;;;;;23.20;15.07;;;0.10;89.40;;;;;;4994692;28;20473;-78
2022/12/18 10:08:40;;;;;;;25.60;15.87;;;0.20;88.80;;;;;;4994631;28;20449;-78
2022/12/18 10:11:25;;;;;;;22.27;14.50;;;0.20;88.20;;;;;;4994523;28;20471;-78
2022/12/18 10:13:56;;;;;;;22.00;14.37;;;0.30;87.90;;;;;;4996039;28;20515;-77
2022/12/18 10:16:28;;;;;;;23.47;13.97;;;0.30;87.10;;;;;;4994839;28;20441;-78
2022/12/18 10:19:04;;;;;;;21.93;14.27;;;0.30;86.70;;;;;;4995443;28;20445;-78
2022/12/18 10:21:37;;;;;;;23.27;14.57;;;0.40;86.60;;;;;;4994502;28;20441;-78
2022/12/18 10:24:17;;;;;;;24.00;15.93;;;0.50;86.70;;;;;;4994063;28;20985;-78
2022/12/18 10:26:45;;;;;;;18.87;13.80;;;0.50;86.00;;;;;;4994459;28;20440;-78
2022/12/18 10:29:14;;;;;;;21.30;15.00;;;0.50;85.90;;;;;;4993871;28;20965;-78
2022/12/18 10:31:41;;;;;;;22.83;15.53;;;0.60;86.10;;;;;;4993915;28;20497;-78
2022/12/18 10:34:10;;;;;;;21.47;15.13;;;0.80;85.30;;;;;;4994406;28;20487;-79
2022/12/18 10:36:37;;;;;;;25.43;16.17;;;0.80;85.10;;;;;;4994426;28;20941;-78
2022/12/18 10:39:18;;;;;;;21.90;14.33;;;0.80;85.30;;;;;;4994183;28;20444;-78
2022/12/18 10:41:46;;;;;;;21.00;14.40;;;0.90;84.60;;;;;;4994209;28;20436;-77
2022/12/18 10:44:20;;;;;;;29.63;15.10;;;1.00;84.40;;;;;;4994038;28;20984;-78
2022/12/18 10:46:48;;;;;;;24.23;14.67;;;1.00;83.60;;;;;;4994107;28;20450;-78
2022/12/18 10:49:30;;;;;;;27.20;17.23;;;1.00;84.20;;;;;;4994647;28;20456;-78
2022/12/18 10:52:14;;;;;;;23.40;15.33;;;1.10;84.30;;;;;;4974734;28;20445;-78
2022/12/18 10:54:52;;;;;;;26.97;16.33;;;1.20;84.10;;;;;;4974275;28;20990;-78
2022/12/18 10:57:32;;;;;;;23.50;16.97;;;1.30;83.80;;;;;;4974681;28;20434;-78
2022/12/18 11:00:00;;;;;;;27.47;16.97;;;1.50;83.60;;;;;;4974707;28;20869;-78
2022/12/18 11:02:34;;;;;;;24.03;14.93;;;1.50;82.50;;;;;;4974958;28;20460;-78
2022/12/18 11:05:02;;;;;;;24.13;16.83;;;1.60;81.70;;;;;;4974746;28;20505;-78
2022/12/18 11:07:49;;;;;;;22.70;15.50;;;1.60;81.60;;;;;;4974592;28;20830;-78
2022/12/18 11:10:19;;;;;;;23.27;15.47;;;1.60;80.80;;;;;;4974541;28;20569;-78
2022/12/18 11:12:47;;;;;;;23.90;15.37;;;1.60;81.20;;;;;;4974332;28;20424;-78
2022/12/18 11:15:20;;;;;;;27.30;16.90;;;1.60;81.70;;;;;;4974790;28;20478;-78
2022/12/18 11:17:49;;;;;;;23.10;14.97;;;1.70;81.50;;;;;;4974371;28;20516;-77
2022/12/18 11:20:27;;;;;;;24.20;15.07;;;1.80;81.30;;;;;;4974448;28;20431;-78
2022/12/18 11:22:59;;;;;;;22.83;14.90;;;1.80;80.20;;;;;;4974006;28;20444;-78
2022/12/18 11:25:28;;;;;;;26.30;16.57;;;1.80;80.40;;;;;;4974903;28;20483;-78
2022/12/18 11:27:57;;;;;;;23.00;15.87;;;1.90;80.30;;;;;;4979797;28;20438;-78
2022/12/18 11:30:26;;;;;;;24.43;15.60;;;1.90;79.50;;;;;;4989458;28;20489;-78
2022/12/18 11:33:00;;;;;;;19.53;14.03;;;1.90;79.50;;;;;;4985220;28;20938;-78
2022/12/18 11:35:38;;;;;;;17.70;13.20;;;1.90;79.30;;;;;;4989552;28;20508;-78
2022/12/18 11:38:13;;;;;;;23.47;15.30;;;1.90;78.70;;;;;;4985283;28;20438;-78
2022/12/18 11:40:47;;;;;;;24.70;14.50;;;1.90;79.50;;;;;;4978852;28;20446;-77
2022/12/18 11:43:18;;;;;;;22.83;15.30;;;1.90;78.90;;;;;;4979181;28;20434;-77
2022/12/18 11:45:51;;;;;;;21.43;15.27;;;1.90;78.70;;;;;;4978488;28;20484;-78
2022/12/18 11:48:22;;;;;;;23.83;14.80;;;1.90;78.90;;;;;;4978510;28;20446;-78
2022/12/18 11:50:54;;;;;;;22.50;15.20;;;1.90;78.40;;;;;;4978391;28;20478;-78
2022/12/18 11:53:21;;;;;;;22.20;14.57;;;1.90;78.70;;;;;;4977831;28;20446;-78
2022/12/18 11:56:00;;;;;;;22.27;14.20;;;1.90;79.40;;;;;;4977800;28;20470;-78
2022/12/18 11:58:48;;;;;;;21.20;13.77;;;1.90;79.50;;;;;;4977898;28;20438;-78
2022/12/18 12:01:36;;;;;;;22.10;13.40;;;1.90;78.70;;;;;;4977560;28;20441;-78
2022/12/18 12:04:30;;;;;;;22.43;16.13;;;1.80;79.20;;;;;;4977409;28;20499;-78
2022/12/18 12:07:05;;;;;;;21.67;14.63;;;1.90;80.00;;;;;;4977368;28;20454;-78
2022/12/18 12:09:38;;;;;;;26.40;16.17;;;1.90;79.90;;;;;;4977428;28;20461;-78
2022/12/18 12:12:20;;;;;;;24.60;16.43;;;2.00;79.40;;;;;;4977467;28;20978;-78
2022/12/18 12:14:54;;;;;;;21.50;14.80;;;1.90;78.50;;;;;;4977784;28;20474;-78
2022/12/18 12:17:32;;;;;;;26.63;16.77;;;1.80;78.40;;;;;;4977299;28;20445;-78
2022/12/18 12:20:06;;;;;;;23.07;14.90;;;1.80;78.90;;;;;;4977601;28;20433;-78
2022/12/18 12:22:46;;;;;;;27.77;17.17;;;1.90;78.70;;;;;;4979794;28;20433;-77
2022/12/18 12:25:28;;;;;;;24.57;15.80;;;1.90;78.70;;;;;;4977741;28;20477;-78
2022/12/18 12:28:11;;;;;;;25.23;16.10;;;1.90;78.40;;;;;;4978414;28;20434;-78
2022/12/18 12:30:49;;;;;;;22.10;15.47;;;1.80;78.30;;;;;;4977202;28;20504;-78
2022/12/18 12:33:28;;;;;;;25.27;14.97;;;1.80;78.30;;;;;;4977212;28;20441;-78
2022/12/18 12:36:02;;;;;;;24.57;15.67;;;1.70;78.40;;;;;;4977050;28;20493;-78
2022/12/18 12:38:34;;;;;;;24.40;14.67;;;1.70;78.60;;;;;;4976106;28;20441;-78
2022/12/18 12:41:04;;;;;;;25.90;16.13;;;1.70;78.90;;;;;;4976933;28;20803;-78
2022/12/18 12:43:41;;;;;;;25.10;16.00;;;1.70;79.00;;;;;;4977907;28;20453;-77
2022/12/18 12:46:09;;;;;;;24.97;17.67;;;1.70;78.40;;;;;;4976613;28;20418;-78
2022/12/18 12:48:42;;;;;;;22.07;16.10;;;1.70;78.60;;;;;;4977693;28;20458;-78
2022/12/18 12:51:16;;;;;;;22.70;15.57;;;1.70;78.70;;;;;;4976865;28;20474;-78